Terminal Aerodrome Forecast
Issued by NWS

Home | Current Version | Previous Version | Text Only | Print | Product List | Glossary On
Versions: 1 2 3 4 5 6 7 8 9 10 11 12 13 14 15 16 17 18 19 20 21 22 23 24 25 26 27 28 29 30 31
000
FTUS45 KGJT 041733
TAFASE
TAF
KASE 041733Z 0418/0518 36010G16KT P6SM SCT060
     FM042000 33012G25KT P6SM VCSH SCT060 BKN150
     FM050200 21005KT P6SM SKC
     FM051400 VRB03KT P6SM SKC=

USA.gov is the U.S. government's official web portal to all federal, state and local government web resources and services.